sensor_id;sensor_type;location;lat;lon;timestamp;pressure;altitude;pressure_sealevel;temperature;humidity
11172;BME280;5642;50.830;12.082;2023-09-19T00:02:09;98638.97;;;19.71;50.17
11172;BME280;5642;50.830;12.082;2023-09-19T00:04:39;98690.16;;;19.96;50.07
11172;BME280;5642;50.830;12.082;2023-09-19T00:07:12;98667.69;;;19.77;50.06
11172;BME280;5642;50.830;12.082;2023-09-19T00:09:44;98642.72;;;19.69;50.27
11172;BME280;5642;50.830;12.082;2023-09-19T00:12:18;98628.22;;;19.62;50.27
11172;BME280;5642;50.830;12.082;2023-09-19T00:14:44;98634.88;;;19.67;50.09
11172;BME280;5642;50.830;12.082;2023-09-19T00:17:18;98700.00;;;20.05;50.10
11172;BME280;5642;50.830;12.082;2023-09-19T00:19:49;98631.22;;;19.68;50.23
11172;BME280;5642;50.830;12.082;2023-09-19T00:22:24;98687.69;;;20.04;50.29
11172;BME280;5642;50.830;12.082;2023-09-19T00:24:57;98669.00;;;19.94;50.43
11172;BME280;5642;50.830;12.082;2023-09-19T00:27:33;98675.50;;;19.90;50.25
11172;BME280;5642;50.830;12.082;2023-09-19T00:30:14;98681.44;;;19.93;50.37
11172;BME280;5642;50.830;12.082;2023-09-19T00:32:55;98686.97;;;20.02;50.54
11172;BME280;5642;50.830;12.082;2023-09-19T00:35:26;98693.25;;;20.01;50.17
11172;BME280;5642;50.830;12.082;2023-09-19T00:38:08;98689.31;;;19.95;50.42
11172;BME280;5642;50.830;12.082;2023-09-19T00:40:46;98692.66;;;19.97;50.42
11172;BME280;5642;50.830;12.082;2023-09-19T00:43:23;98701.97;;;19.91;50.44
11172;BME280;5642;50.830;12.082;2023-09-19T00:46:02;98715.38;;;19.90;50.27
11172;BME280;5642;50.830;12.082;2023-09-19T00:48:40;98718.03;;;19.90;50.67
11172;BME280;5642;50.830;12.082;2023-09-19T00:51:16;98711.19;;;19.87;50.69
11172;BME280;5642;50.830;12.082;2023-09-19T00:53:53;98699.34;;;19.80;50.57
11172;BME280;5642;50.830;12.082;2023-09-19T00:56:28;98677.59;;;19.75;50.64
11172;BME280;5642;50.830;12.082;2023-09-19T00:59:01;98647.56;;;19.64;50.30
11172;BME280;5642;50.830;12.082;2023-09-19T01:01:33;98687.59;;;19.83;50.39
11172;BME280;5642;50.830;12.082;2023-09-19T01:04:09;98670.63;;;19.74;50.46
11172;BME280;5642;50.830;12.082;2023-09-19T01:06:42;98675.16;;;19.83;50.51
11172;BME280;5642;50.830;12.082;2023-09-19T01:09:25;98734.22;;;20.09;50.37
11172;BME280;5642;50.830;12.082;2023-09-19T01:12:01;98689.91;;;19.87;50.49
11172;BME280;5642;50.830;12.082;2023-09-19T01:14:54;98674.94;;;19.75;50.61
11172;BME280;5642;50.830;12.082;2023-09-19T01:23:46;98756.91;;;20.13;50.67
11172;BME280;5642;50.830;12.082;2023-09-19T01:28:59;98744.84;;;20.09;50.47
11172;BME280;5642;50.830;12.082;2023-09-19T01:31:37;98743.16;;;20.08;50.74
11172;BME280;5642;50.830;12.082;2023-09-19T01:34:11;98701.63;;;19.85;50.48
11172;BME280;5642;50.830;12.082;2023-09-19T01:36:56;98747.75;;;20.06;50.84
11172;BME280;5642;50.830;12.082;2023-09-19T01:39:46;98711.69;;;19.81;50.78
11172;BME280;5642;50.830;12.082;2023-09-19T01:42:42;98759.97;;;20.09;50.56
11172;BME280;5642;50.830;12.082;2023-09-19T01:48:57;98758.28;;;19.85;50.91
11172;BME280;5642;50.830;12.082;2023-09-19T01:54:39;98747.31;;;19.68;50.89
11172;BME280;5642;50.830;12.082;2023-09-19T01:57:28;98757.56;;;19.72;50.78
11172;BME280;5642;50.830;12.082;2023-09-19T02:00:06;98764.47;;;19.75;50.93
11172;BME280;5642;50.830;12.082;2023-09-19T02:02:36;98743.69;;;19.58;50.72
11172;BME280;5642;50.830;12.082;2023-09-19T02:05:10;98771.94;;;19.70;50.87
11172;BME280;5642;50.830;12.082;2023-09-19T02:07:43;98762.66;;;19.64;50.83
11172;BME280;5642;50.830;12.082;2023-09-19T02:10:17;98765.31;;;19.64;50.92
11172;BME280;5642;50.830;12.082;2023-09-19T02:12:49;98769.53;;;19.67;50.69
11172;BME280;5642;50.830;12.082;2023-09-19T02:15:25;98711.88;;;19.34;50.82
11172;BME280;5642;50.830;12.082;2023-09-19T02:17:54;98699.47;;;19.23;51.07
11172;BME280;5642;50.830;12.082;2023-09-19T02:20:47;98777.38;;;19.68;50.85
11172;BME280;5642;50.830;12.082;2023-09-19T02:23:13;98777.25;;;19.70;50.82
11172;BME280;5642;50.830;12.082;2023-09-19T02:25:39;98780.16;;;19.67;51.04
11172;BME280;5642;50.830;12.082;2023-09-19T02:28:14;98781.25;;;19.64;50.92
11172;BME280;5642;50.830;12.082;2023-09-19T02:30:48;98781.34;;;19.63;50.96
11172;BME280;5642;50.830;12.082;2023-09-19T02:33:24;98768.41;;;19.47;51.41
11172;BME280;5642;50.830;12.082;2023-09-19T02:35:57;98789.59;;;19.60;51.38
11172;BME280;5642;50.830;12.082;2023-09-19T02:38:33;98728.53;;;19.13;51.01
11172;BME280;5642;50.830;12.082;2023-09-19T02:41:14;98749.19;;;19.21;51.23
11172;BME280;5642;50.830;12.082;2023-09-19T02:43:40;98763.91;;;19.25;51.24
11172;BME280;5642;50.830;12.082;2023-09-19T02:46:09;98796.16;;;19.43;51.13
11172;BME280;5642;50.830;12.082;2023-09-19T02:48:37;98806.22;;;19.50;51.41
11172;BME280;5642;50.830;12.082;2023-09-19T02:51:12;98799.78;;;19.42;50.99
11172;BME280;5642;50.830;12.082;2023-09-19T02:53:39;98775.63;;;19.23;51.04
11172;BME280;5642;50.830;12.082;2023-09-19T02:56:09;98764.25;;;19.09;51.10
11172;BME280;5642;50.830;12.082;2023-09-19T02:58:44;98782.34;;;19.15;51.57
11172;BME280;5642;50.830;12.082;2023-09-19T03:01:10;98789.59;;;19.13;51.18
11172;BME280;5642;50.830;12.082;2023-09-19T03:03:46;98741.47;;;18.83;51.43
11172;BME280;5642;50.830;12.082;2023-09-19T03:06:38;98756.59;;;18.83;51.43
11172;BME280;5642;50.830;12.082;2023-09-19T03:09:10;98813.84;;;19.09;51.44
11172;BME280;5642;50.830;12.082;2023-09-19T03:11:42;98796.44;;;19.05;51.49
11172;BME280;5642;50.830;12.082;2023-09-19T03:14:10;98806.34;;;19.03;51.69
11172;BME280;5642;50.830;12.082;2023-09-19T03:16:37;98734.22;;;18.50;51.56
11172;BME280;5642;50.830;12.082;2023-09-19T03:19:10;98729.97;;;18.48;51.64
11172;BME280;5642;50.830;12.082;2023-09-19T03:21:50;98825.38;;;18.97;51.53
11172;BME280;5642;50.830;12.082;2023-09-19T03:24:19;98784.13;;;18.69;51.34
11172;BME280;5642;50.830;12.082;2023-09-19T03:27:09;98809.13;;;18.77;51.72
11172;BME280;5642;50.830;12.082;2023-09-19T03:29:44;98756.63;;;18.46;51.50
11172;BME280;5642;50.830;12.082;2023-09-19T03:32:11;98790.03;;;18.61;51.93
11172;BME280;5642;50.830;12.082;2023-09-19T03:34:49;98808.25;;;18.66;51.80
11172;BME280;5642;50.830;12.082;2023-09-19T03:37:32;98827.94;;;18.74;51.75
11172;BME280;5642;50.830;12.082;2023-09-19T03:40:01;98761.66;;;18.38;51.74
11172;BME280;5642;50.830;12.082;2023-09-19T03:42:48;98744.22;;;18.23;51.86
11172;BME280;5642;50.830;12.082;2023-09-19T03:45:15;98764.13;;;18.28;51.83
11172;BME280;5642;50.830;12.082;2023-09-19T03:47:42;98785.91;;;18.45;51.95
11172;BME280;5642;50.830;12.082;2023-09-19T03:50:22;98783.72;;;18.38;52.02
11172;BME280;5642;50.830;12.082;2023-09-19T03:52:56;98756.06;;;18.30;51.84
11172;BME280;5642;50.830;12.082;2023-09-19T03:55:22;98782.59;;;18.54;51.61
11172;BME280;5642;50.830;12.082;2023-09-19T03:58:03;98766.16;;;18.49;51.68
11172;BME280;5642;50.830;12.082;2023-09-19T04:00:55;98744.22;;;18.47;51.27
11172;BME280;5642;50.830;12.082;2023-09-19T04:03:34;98787.03;;;18.77;51.60
11172;BME280;5642;50.830;12.082;2023-09-19T04:06:19;98756.50;;;18.60;51.58
11172;BME280;5642;50.830;12.082;2023-09-19T04:08:45;98820.88;;;18.97;51.65
11172;BME280;5642;50.830;12.082;2023-09-19T04:11:14;98832.63;;;19.06;51.61
11172;BME280;5642;50.830;12.082;2023-09-19T04:14:03;98798.78;;;18.86;51.57
11172;BME280;5642;50.830;12.082;2023-09-19T04:16:30;98781.13;;;18.73;51.75
11172;BME280;5642;50.830;12.082;2023-09-19T04:19:11;98832.88;;;19.03;51.56
11172;BME280;5642;50.830;12.082;2023-09-19T04:21:37;98833.56;;;18.94;51.94
11172;BME280;5642;50.830;12.082;2023-09-19T04:24:05;98796.03;;;18.63;51.79
11172;BME280;5642;50.830;12.082;2023-09-19T04:26:36;98849.38;;;18.95;51.82
11172;BME280;5642;50.830;12.082;2023-09-19T04:29:02;98782.47;;;18.55;51.79
11172;BME280;5642;50.830;12.082;2023-09-19T04:31:29;98824.19;;;18.77;51.80
11172;BME280;5642;50.830;12.082;2023-09-19T04:34:15;98815.94;;;18.69;51.81
11172;BME280;5642;50.830;12.082;2023-09-19T04:37:17;98759.13;;;18.36;51.84
11172;BME280;5642;50.830;12.082;2023-09-19T04:40:01;98864.56;;;18.93;51.86
11172;BME280;5642;50.830;12.082;2023-09-19T04:42:30;98864.44;;;18.95;51.94
11172;BME280;5642;50.830;12.082;2023-09-19T04:45:00;98844.47;;;18.78;51.92
11172;BME280;5642;50.830;12.082;2023-09-19T04:47:43;98756.91;;;18.30;51.85
11172;BME280;5642;50.830;12.082;2023-09-19T04:50:12;98810.91;;;18.53;51.77
11172;BME280;5642;50.830;12.082;2023-09-19T04:52:50;98809.22;;;18.52;51.95
11172;BME280;5642;50.830;12.082;2023-09-19T04:55:18;98873.94;;;18.86;51.82
11172;BME280;5642;50.830;12.082;2023-09-19T04:57:47;98879.59;;;18.82;52.03
11172;BME280;5642;50.830;12.082;2023-09-19T05:00:32;98850.19;;;18.61;52.08
11172;BME280;5642;50.830;12.082;2023-09-19T05:03:05;98836.19;;;18.46;52.08
11172;BME280;5642;50.830;12.082;2023-09-19T05:05:39;98787.09;;;18.17;52.04
11172;BME280;5642;50.830;12.082;2023-09-19T05:08:14;98808.34;;;18.28;52.04
11172;BME280;5642;50.830;12.082;2023-09-19T05:10:48;98874.09;;;18.72;52.09
11172;BME280;5642;50.830;12.082;2023-09-19T05:13:17;98828.53;;;18.54;51.91
11172;BME280;5642;50.830;12.082;2023-09-19T05:15:44;98866.44;;;18.80;51.81
11172;BME280;5642;50.830;12.082;2023-09-19T05:18:26;98810.38;;;18.61;51.79
11172;BME280;5642;50.830;12.082;2023-09-19T05:21:14;98814.03;;;18.71;51.57
11172;BME280;5642;50.830;12.082;2023-09-19T05:23:42;98836.31;;;18.92;51.68
11172;BME280;5642;50.830;12.082;2023-09-19T05:26:14;98833.44;;;18.95;51.58
11172;BME280;5642;50.830;12.082;2023-09-19T05:28:46;98799.41;;;18.89;51.75
11172;BME280;5642;50.830;12.082;2023-09-19T05:31:21;98827.09;;;19.09;51.57
11172;BME280;5642;50.830;12.082;2023-09-19T05:33:52;98877.44;;;19.45;51.38
11172;BME280;5642;50.830;12.082;2023-09-19T05:36:32;98829.47;;;19.25;51.49
11172;BME280;5642;50.830;12.082;2023-09-19T05:38:59;98821.00;;;19.31;51.46
11172;BME280;5642;50.830;12.082;2023-09-19T05:41:27;98813.53;;;19.36;51.21
11172;BME280;5642;50.830;12.082;2023-09-19T05:43:54;98865.66;;;19.83;51.16
11172;BME280;5642;50.830;12.082;2023-09-19T05:46:22;98809.72;;;19.62;51.25
11172;BME280;5642;50.830;12.082;2023-09-19T05:48:55;98824.59;;;19.76;51.21
11172;BME280;5642;50.830;12.082;2023-09-19T05:51:25;98891.78;;;20.11;51.25
11172;BME280;5642;50.830;12.082;2023-09-19T05:53:55;98854.69;;;19.87;51.26
11172;BME280;5642;50.830;12.082;2023-09-19T05:56:24;98866.16;;;19.99;51.25
11172;BME280;5642;50.830;12.082;2023-09-19T05:58:53;98819.06;;;19.79;51.18
11172;BME280;5642;50.830;12.082;2023-09-19T06:01:20;98885.38;;;20.25;51.08
11172;BME280;5642;50.830;12.082;2023-09-19T06:03:50;98817.38;;;19.89;51.42
11172;BME280;5642;50.830;12.082;2023-09-19T06:06:21;98868.94;;;20.20;51.34
11172;BME280;5642;50.830;12.082;2023-09-19T06:08:56;98807.81;;;19.98;51.11
11172;BME280;5642;50.830;12.082;2023-09-19T06:11:24;98853.84;;;20.31;50.97
11172;BME280;5642;50.830;12.082;2023-09-19T06:13:54;98887.66;;;20.63;50.96
11172;BME280;5642;50.830;12.082;2023-09-19T06:16:37;98826.06;;;20.24;51.03
11172;BME280;5642;50.830;12.082;2023-09-19T06:19:10;98904.09;;;20.79;50.96
11172;BME280;5642;50.830;12.082;2023-09-19T06:21:42;98886.81;;;20.74;51.00
11172;BME280;5642;50.830;12.082;2023-09-19T06:24:09;98887.38;;;20.77;50.95
11172;BME280;5642;50.830;12.082;2023-09-19T06:26:46;98864.78;;;20.71;51.08
11172;BME280;5642;50.830;12.082;2023-09-19T06:29:13;98870.78;;;20.85;50.97
11172;BME280;5642;50.830;12.082;2023-09-19T06:31:48;98872.78;;;21.03;51.20
11172;BME280;5642;50.830;12.082;2023-09-19T06:34:15;98878.78;;;21.28;51.19
11172;BME280;5642;50.830;12.082;2023-09-19T06:36:44;98903.59;;;22.42;50.53
11172;BME280;5642;50.830;12.082;2023-09-19T06:39:11;98877.47;;;23.53;49.42
11172;BME280;5642;50.830;12.082;2023-09-19T06:41:38;98919.03;;;25.05;48.46
11172;BME280;5642;50.830;12.082;2023-09-19T06:44:07;98879.91;;;25.47;47.75
11172;BME280;5642;50.830;12.082;2023-09-19T06:46:36;98954.75;;;26.87;46.91
11172;BME280;5642;50.830;12.082;2023-09-19T06:49:13;98871.91;;;27.74;45.68
11172;BME280;5642;50.830;12.082;2023-09-19T06:51:45;98865.09;;;28.96;44.93
11172;BME280;5642;50.830;12.082;2023-09-19T06:54:12;98851.38;;;29.89;43.92
11172;BME280;5642;50.830;12.082;2023-09-19T06:56:39;98877.06;;;30.88;43.18
11172;BME280;5642;50.830;12.082;2023-09-19T06:59:08;98884.59;;;31.49;42.52
11172;BME280;5642;50.830;12.082;2023-09-19T07:01:49;98932.34;;;32.62;42.40
11172;BME280;5642;50.830;12.082;2023-09-19T07:04:18;98943.34;;;33.42;41.51
11172;BME280;5642;50.830;12.082;2023-09-19T07:06:50;98904.75;;;34.00;41.00
11172;BME280;5642;50.830;12.082;2023-09-19T07:09:20;98858.59;;;34.64;40.60
11172;BME280;5642;50.830;12.082;2023-09-19T07:11:52;98871.97;;;35.48;39.85
11172;BME280;5642;50.830;12.082;2023-09-19T07:14:20;98878.03;;;36.25;39.77
11172;BME280;5642;50.830;12.082;2023-09-19T07:16:47;98886.75;;;36.88;39.03
11172;BME280;5642;50.830;12.082;2023-09-19T07:19:26;98910.06;;;37.02;38.92
11172;BME280;5642;50.830;12.082;2023-09-19T07:21:58;98910.66;;;36.13;40.02
11172;BME280;5642;50.830;12.082;2023-09-19T07:24:31;98898.56;;;35.15;40.59
11172;BME280;5642;50.830;12.082;2023-09-19T07:27:01;98920.22;;;34.06;41.44
11172;BME280;5642;50.830;12.082;2023-09-19T07:29:28;98912.09;;;32.99;41.79
11172;BME280;5642;50.830;12.082;2023-09-19T07:31:55;98941.09;;;32.23;42.42
11172;BME280;5642;50.830;12.082;2023-09-19T07:34:24;98912.13;;;31.32;42.83
11172;BME280;5642;50.830;12.082;2023-09-19T07:36:57;98981.47;;;31.54;42.88
11172;BME280;5642;50.830;12.082;2023-09-19T07:39:27;98924.59;;;31.11;42.50
11172;BME280;5642;50.830;12.082;2023-09-19T07:41:54;98914.41;;;30.99;42.57
11172;BME280;5642;50.830;12.082;2023-09-19T07:44:44;98923.13;;;30.80;42.10
11172;BME280;5642;50.830;12.082;2023-09-19T07:47:25;98938.53;;;30.79;42.11
11172;BME280;5642;50.830;12.082;2023-09-19T07:49:57;98942.31;;;31.35;41.68
11172;BME280;5642;50.830;12.082;2023-09-19T07:52:26;98959.44;;;32.27;40.98
11172;BME280;5642;50.830;12.082;2023-09-19T07:55:01;98976.88;;;32.74;40.72
11172;BME280;5642;50.830;12.082;2023-09-19T07:57:33;98958.56;;;32.55;40.57
11172;BME280;5642;50.830;12.082;2023-09-19T08:00:00;98964.00;;;32.55;40.21
11172;BME280;5642;50.830;12.082;2023-09-19T08:02:37;99007.97;;;32.78;40.39
11172;BME280;5642;50.830;12.082;2023-09-19T08:05:14;98965.53;;;32.30;40.37
11172;BME280;5642;50.830;12.082;2023-09-19T08:07:54;98981.41;;;32.67;40.00
11172;BME280;5642;50.830;12.082;2023-09-19T08:10:33;99058.03;;;33.51;39.85
11172;BME280;5642;50.830;12.082;2023-09-19T08:13:01;99000.81;;;33.05;39.29
11172;BME280;5642;50.830;12.082;2023-09-19T08:15:28;99043.47;;;32.83;39.96
11172;BME280;5642;50.830;12.082;2023-09-19T08:17:56;99007.38;;;32.83;39.66
11172;BME280;5642;50.830;12.082;2023-09-19T08:20:31;99019.19;;;33.03;39.56
11172;BME280;5642;50.830;12.082;2023-09-19T08:23:05;99004.00;;;32.74;39.73
11172;BME280;5642;50.830;12.082;2023-09-19T08:26:02;99049.34;;;32.59;39.92
11172;BME280;5642;50.830;12.082;2023-09-19T08:28:36;99020.16;;;32.12;39.90
11172;BME280;5642;50.830;12.082;2023-09-19T08:31:07;99013.84;;;31.62;40.20
11172;BME280;5642;50.830;12.082;2023-09-19T08:33:36;99041.09;;;31.25;40.14
11172;BME280;5642;50.830;12.082;2023-09-19T08:36:04;98988.19;;;30.49;40.32
11172;BME280;5642;50.830;12.082;2023-09-19T08:41:19;99054.78;;;30.64;40.05
11172;BME280;5642;50.830;12.082;2023-09-19T08:43:46;99033.63;;;30.97;40.13
11172;BME280;5642;50.830;12.082;2023-09-19T08:46:18;99064.88;;;31.29;39.85
11172;BME280;5642;50.830;12.082;2023-09-19T08:49:15;98999.97;;;31.50;39.34
11172;BME280;5642;50.830;12.082;2023-09-19T08:51:48;98980.63;;;31.68;39.43
11172;BME280;5642;50.830;12.082;2023-09-19T08:54:35;99018.31;;;31.91;39.39
11172;BME280;5642;50.830;12.082;2023-09-19T08:57:07;99005.00;;;31.54;39.53
11172;BME280;5642;50.830;12.082;2023-09-19T08:59:48;99028.03;;;31.64;38.90
11172;BME280;5642;50.830;12.082;2023-09-19T09:02:20;98996.19;;;31.30;39.03
11172;BME280;5642;50.830;12.082;2023-09-19T09:04:49;99063.97;;;31.73;39.03
11172;BME280;5642;50.830;12.082;2023-09-19T09:07:17;99074.38;;;31.55;38.83
11172;BME280;5642;50.830;12.082;2023-09-19T09:09:46;99070.38;;;31.21;39.03
11172;BME280;5642;50.830;12.082;2023-09-19T09:12:18;99046.75;;;30.71;39.14
11172;BME280;5642;50.830;12.082;2023-09-19T09:14:45;99073.53;;;30.66;38.99
11172;BME280;5642;50.830;12.082;2023-09-19T09:17:18;99067.25;;;30.51;38.98
11172;BME280;5642;50.830;12.082;2023-09-19T09:19:52;99034.63;;;30.52;38.63
11172;BME280;5642;50.830;12.082;2023-09-19T09:22:23;99064.31;;;30.75;38.93
11172;BME280;5642;50.830;12.082;2023-09-19T09:24:57;99059.22;;;31.09;38.83
11172;BME280;5642;50.830;12.082;2023-09-19T09:27:33;99063.78;;;31.24;38.43
11172;BME280;5642;50.830;12.082;2023-09-19T09:30:03;99015.06;;;30.94;38.73
11172;BME280;5642;50.830;12.082;2023-09-19T09:32:31;99016.94;;;30.94;38.47
11172;BME280;5642;50.830;12.082;2023-09-19T09:35:08;99061.53;;;31.12;38.06
11172;BME280;5642;50.830;12.082;2023-09-19T09:37:59;99058.63;;;30.99;38.56
11172;BME280;5642;50.830;12.082;2023-09-19T09:40:58;99022.06;;;30.89;38.35
11172;BME280;5642;50.830;12.082;2023-09-19T09:43:38;99062.66;;;31.33;38.14
11172;BME280;5642;50.830;12.082;2023-09-19T09:46:19;99062.75;;;31.10;37.93
11172;BME280;5642;50.830;12.082;2023-09-19T09:48:58;99066.09;;;30.83;38.15
11172;BME280;5642;50.830;12.082;2023-09-19T09:51:48;99077.34;;;30.71;38.41
11172;BME280;5642;50.830;12.082;2023-09-19T09:54:25;99080.88;;;30.72;38.27
11172;BME280;5642;50.830;12.082;2023-09-19T09:57:10;99065.97;;;30.91;38.54
11172;BME280;5642;50.830;12.082;2023-09-19T09:59:50;99065.28;;;31.26;38.43
11172;BME280;5642;50.830;12.082;2023-09-19T10:02:26;99021.75;;;31.28;38.00
11172;BME280;5642;50.830;12.082;2023-09-19T10:04:59;99065.66;;;31.95;38.18
11172;BME280;5642;50.830;12.082;2023-09-19T10:07:41;99068.56;;;32.36;37.96
11172;BME280;5642;50.830;12.082;2023-09-19T10:10:13;99069.22;;;32.38;37.94
11172;BME280;5642;50.830;12.082;2023-09-19T10:12:50;99078.69;;;32.27;37.82
11172;BME280;5642;50.830;12.082;2023-09-19T10:15:24;99080.13;;;32.02;37.65
11172;BME280;5642;50.830;12.082;2023-09-19T10:17:54;99079.75;;;31.69;37.46
11172;BME280;5642;50.830;12.082;2023-09-19T10:20:23;99074.94;;;31.35;37.54
11172;BME280;5642;50.830;12.082;2023-09-19T10:23:12;99073.06;;;30.92;37.63
11172;BME280;5642;50.830;12.082;2023-09-19T10:25:41;99069.69;;;30.60;37.78
11172;BME280;5642;50.830;12.082;2023-09-19T10:28:13;99085.25;;;30.35;37.67
11172;BME280;5642;50.830;12.082;2023-09-19T10:30:44;99065.28;;;29.99;37.22
11172;BME280;5642;50.830;12.082;2023-09-19T10:33:22;99094.72;;;29.86;37.42
11172;BME280;5642;50.830;12.082;2023-09-19T10:35:52;99074.22;;;29.77;37.72
11172;BME280;5642;50.830;12.082;2023-09-19T10:38:26;99085.78;;;29.85;37.60
11172;BME280;5642;50.830;12.082;2023-09-19T10:40:58;99073.50;;;29.83;37.70
11172;BME280;5642;50.830;12.082;2023-09-19T10:43:33;99072.41;;;29.92;37.50
11172;BME280;5642;50.830;12.082;2023-09-19T10:46:05;99049.78;;;29.70;37.78
11172;BME280;5642;50.830;12.082;2023-09-19T10:48:34;99078.50;;;29.94;37.24
11172;BME280;5642;50.830;12.082;2023-09-19T10:54:26;99053.94;;;29.81;36.81
11172;BME280;5642;50.830;12.082;2023-09-19T10:59:14;99094.94;;;30.30;37.18
11172;BME280;5642;50.830;12.082;2023-09-19T11:01:48;99093.53;;;30.34;37.04
11172;BME280;5642;50.830;12.082;2023-09-19T11:04:24;99099.78;;;30.57;37.13
11172;BME280;5642;50.830;12.082;2023-09-19T11:07:12;99093.31;;;30.96;37.30
11172;BME280;5642;50.830;12.082;2023-09-19T11:09:54;99064.22;;;31.27;37.09
11172;BME280;5642;50.830;12.082;2023-09-19T11:15:06;99091.19;;;31.86;37.20
11172;BME280;5642;50.830;12.082;2023-09-19T11:17:44;99080.47;;;31.78;36.92
11172;BME280;5642;50.830;12.082;2023-09-19T11:20:24;99068.31;;;31.88;36.83
11172;BME280;5642;50.830;12.082;2023-09-19T11:25:43;99063.22;;;32.21;37.16
11172;BME280;5642;50.830;12.082;2023-09-19T11:30:51;99061.47;;;32.91;36.98
11172;BME280;5642;50.830;12.082;2023-09-19T11:33:29;99056.22;;;33.17;37.13
11172;BME280;5642;50.830;12.082;2023-09-19T11:41:42;99063.56;;;33.77;35.88
11172;BME280;5642;50.830;12.082;2023-09-19T11:46:53;99057.09;;;33.78;34.77
11172;BME280;5642;50.830;12.082;2023-09-19T11:49:32;99041.88;;;33.30;34.72
11172;BME280;5642;50.830;12.082;2023-09-19T11:52:01;99026.31;;;32.76;34.64
11172;BME280;5642;50.830;12.082;2023-09-19T11:54:31;99055.09;;;32.49;34.78
11172;BME280;5642;50.830;12.082;2023-09-19T11:57:01;99047.78;;;32.01;34.49
11172;BME280;5642;50.830;12.082;2023-09-19T11:59:38;99060.88;;;31.76;34.44
11172;BME280;5642;50.830;12.082;2023-09-19T12:02:06;99061.13;;;31.45;34.62
11172;BME280;5642;50.830;12.082;2023-09-19T12:04:38;99055.94;;;31.14;33.92
11172;BME280;5642;50.830;12.082;2023-09-19T12:07:11;99025.69;;;30.66;34.65
11172;BME280;5642;50.830;12.082;2023-09-19T12:09:49;99065.91;;;30.47;34.71
11172;BME280;5642;50.830;12.082;2023-09-19T12:12:22;99037.50;;;29.90;34.18
11172;BME280;5642;50.830;12.082;2023-09-19T12:14:51;99063.50;;;29.61;34.46
11172;BME280;5642;50.830;12.082;2023-09-19T12:17:19;99045.69;;;29.12;34.41
11172;BME280;5642;50.830;12.082;2023-09-19T12:19:51;99064.66;;;28.88;34.70
11172;BME280;5642;50.830;12.082;2023-09-19T12:22:22;99072.72;;;28.72;34.68
11172;BME280;5642;50.830;12.082;2023-09-19T12:24:48;99061.50;;;28.44;34.87
11172;BME280;5642;50.830;12.082;2023-09-19T12:27:24;99056.81;;;28.22;34.78
11172;BME280;5642;50.830;12.082;2023-09-19T12:29:53;99048.19;;;28.10;34.93
11172;BME280;5642;50.830;12.082;2023-09-19T12:32:35;99066.88;;;27.95;34.46
11172;BME280;5642;50.830;12.082;2023-09-19T12:35:08;99012.84;;;27.56;34.78
11172;BME280;5642;50.830;12.082;2023-09-19T12:37:45;98992.94;;;27.41;34.86
11172;BME280;5642;50.830;12.082;2023-09-19T12:40:21;99029.50;;;27.68;34.84
11172;BME280;5642;50.830;12.082;2023-09-19T12:42:56;98999.00;;;27.51;34.48
11172;BME280;5642;50.830;12.082;2023-09-19T12:45:27;98989.88;;;27.36;34.65
11172;BME280;5642;50.830;12.082;2023-09-19T12:48:22;99051.88;;;27.77;34.71
11172;BME280;5642;50.830;12.082;2023-09-19T12:53:30;99046.16;;;27.80;34.71
11172;BME280;5642;50.830;12.082;2023-09-19T12:56:02;99053.06;;;27.90;34.67
11172;BME280;5642;50.830;12.082;2023-09-19T12:58:56;99051.72;;;28.11;34.63
11172;BME280;5642;50.830;12.082;2023-09-19T13:01:25;99055.63;;;28.16;34.14
11172;BME280;5642;50.830;12.082;2023-09-19T13:04:16;99037.44;;;28.10;34.33
11172;BME280;5642;50.830;12.082;2023-09-19T13:06:54;99048.88;;;28.04;34.49
11172;BME280;5642;50.830;12.082;2023-09-19T13:09:24;99051.22;;;28.07;34.34
11172;BME280;5642;50.830;12.082;2023-09-19T13:11:59;99044.50;;;27.95;34.19
11172;BME280;5642;50.830;12.082;2023-09-19T13:14:38;99052.06;;;27.83;34.29
11172;BME280;5642;50.830;12.082;2023-09-19T13:17:12;99053.06;;;27.82;34.15
11172;BME280;5642;50.830;12.082;2023-09-19T13:19:47;99039.09;;;27.71;34.36
11172;BME280;5642;50.830;12.082;2023-09-19T13:22:56;99044.13;;;27.74;34.22
11172;BME280;5642;50.830;12.082;2023-09-19T13:25:38;99057.59;;;27.74;34.27
11172;BME280;5642;50.830;12.082;2023-09-19T13:28:06;99060.94;;;27.67;33.96
11172;BME280;5642;50.830;12.082;2023-09-19T13:30:37;99060.41;;;27.64;34.02
11172;BME280;5642;50.830;12.082;2023-09-19T13:33:15;99039.16;;;27.45;34.06
11172;BME280;5642;50.830;12.082;2023-09-19T13:35:46;99029.53;;;27.26;33.94
11172;BME280;5642;50.830;12.082;2023-09-19T13:38:17;99048.72;;;27.31;34.10
11172;BME280;5642;50.830;12.082;2023-09-19T13:40:44;99046.81;;;27.23;34.21
11172;BME280;5642;50.830;12.082;2023-09-19T13:43:14;99019.09;;;26.89;33.96
11172;BME280;5642;50.830;12.082;2023-09-19T13:45:43;99029.84;;;26.89;34.22
11172;BME280;5642;50.830;12.082;2023-09-19T13:48:14;99040.75;;;26.87;34.34
11172;BME280;5642;50.830;12.082;2023-09-19T13:50:42;99047.63;;;26.82;34.09
11172;BME280;5642;50.830;12.082;2023-09-19T13:53:08;99060.72;;;26.77;34.25
11172;BME280;5642;50.830;12.082;2023-09-19T13:55:36;99059.13;;;26.66;34.51
11172;BME280;5642;50.830;12.082;2023-09-19T13:58:06;99039.63;;;26.38;34.36
11172;BME280;5642;50.830;12.082;2023-09-19T14:00:34;99036.59;;;26.33;34.29
11172;BME280;5642;50.830;12.082;2023-09-19T14:03:03;99049.47;;;26.30;34.36
11172;BME280;5642;50.830;12.082;2023-09-19T14:05:49;99060.53;;;26.27;34.50
11172;BME280;5642;50.830;12.082;2023-09-19T14:08:21;99050.84;;;26.16;34.58
11172;BME280;5642;50.830;12.082;2023-09-19T14:10:49;99068.97;;;26.14;34.55
11172;BME280;5642;50.830;12.082;2023-09-19T14:13:15;99072.72;;;26.03;34.87
11172;BME280;5642;50.830;12.082;2023-09-19T14:15:44;99060.06;;;25.96;34.43
11172;BME280;5642;50.830;12.082;2023-09-19T14:18:10;99065.91;;;25.91;34.36
11172;BME280;5642;50.830;12.082;2023-09-19T14:20:38;99050.88;;;25.81;34.62